createdAt,value
2019-02-09T00:00:21.675Z,0.00
2019-02-09T00:01:21.660Z,0.00
2019-02-09T00:02:21.654Z,0.00
2019-02-09T00:03:21.644Z,0.00
2019-02-09T00:04:21.629Z,0.00
2019-02-09T00:05:21.621Z,0.00
2019-02-09T00:06:21.611Z,0.00
2019-02-09T00:07:21.607Z,0.00
2019-02-09T00:08:21.588Z,0.00
2019-02-09T00:09:21.576Z,0.00
2019-02-09T00:10:21.567Z,0.00
2019-02-09T00:11:21.553Z,0.00
2019-02-09T00:12:21.544Z,0.00
2019-02-09T00:13:21.528Z,0.00
2019-02-09T00:14:21.522Z,0.00
2019-02-09T00:15:21.506Z,0.00
2019-02-09T00:16:21.492Z,0.00
2019-02-09T00:17:21.481Z,0.00
2019-02-09T00:18:21.473Z,0.00
2019-02-09T00:19:21.466Z,0.00
2019-02-09T00:20:21.447Z,0.00
2019-02-09T00:21:21.440Z,0.00
2019-02-09T00:22:21.439Z,0.00
2019-02-09T00:23:21.417Z,0.00
2019-02-09T00:24:21.411Z,0.00
2019-02-09T00:25:21.391Z,0.00
2019-02-09T00:26:21.385Z,0.00
2019-02-09T00:27:21.368Z,0.00
2019-02-09T00:28:21.359Z,0.00
2019-02-09T00:29:21.353Z,0.00
2019-02-09T00:30:21.338Z,0.00
2019-02-09T00:31:21.323Z,0.00
2019-02-09T00:32:21.316Z,0.00
2019-02-09T00:33:21.324Z,0.00
2019-02-09T00:34:21.303Z,0.00
2019-02-09T00:35:21.281Z,0.00
2019-02-09T00:36:21.275Z,0.00
2019-02-09T00:37:21.263Z,0.00
2019-02-09T00:38:21.252Z,0.00
2019-02-09T00:39:21.238Z,0.00
2019-02-09T00:40:21.229Z,0.00
2019-02-09T00:41:21.221Z,0.00
2019-02-09T00:42:21.217Z,0.00
2019-02-09T00:43:21.192Z,0.00
2019-02-09T00:44:21.194Z,0.00
2019-02-09T00:45:21.169Z,0.00
2019-02-09T00:46:21.155Z,0.00
2019-02-09T00:47:21.144Z,0.00
2019-02-09T00:48:21.132Z,0.00
2019-02-09T00:49:21.124Z,0.00
2019-02-09T00:50:21.114Z,0.00
2019-02-09T00:51:21.107Z,0.00
2019-02-09T00:52:21.089Z,0.00
2019-02-09T00:53:21.082Z,0.00
2019-02-09T00:54:21.071Z,0.00
2019-02-09T00:55:21.057Z,0.00
2019-02-09T00:56:21.043Z,0.00
2019-02-09T00:57:21.032Z,0.00
2019-02-09T00:58:21.029Z,0.00
2019-02-09T00:59:21.013Z,0.00
2019-02-09T01:00:21.001Z,0.00
2019-02-09T01:01:20.989Z,0.00
2019-02-09T01:02:20.978Z,0.00
2019-02-09T01:03:20.960Z,0.00
2019-02-09T01:04:20.956Z,0.00
2019-02-09T01:05:20.939Z,0.00
2019-02-09T01:06:20.928Z,0.00
2019-02-09T01:07:20.920Z,0.00
2019-02-09T01:08:20.921Z,0.00
2019-02-09T01:09:20.893Z,0.00
2019-02-09T01:10:20.885Z,0.00
2019-02-09T01:11:20.882Z,0.00
2019-02-09T01:12:20.861Z,0.00
2019-02-09T01:13:20.859Z,0.00
2019-02-09T01:14:20.844Z,0.00
2019-02-09T01:15:20.833Z,0.00
2019-02-09T01:16:21.432Z,0.00
2019-02-09T01:17:20.806Z,0.00
2019-02-09T01:18:20.792Z,0.00
2019-02-09T01:19:20.782Z,0.00
2019-02-09T01:20:20.778Z,0.00
2019-02-09T01:21:20.762Z,0.00
2019-02-09T01:22:20.749Z,0.00
2019-02-09T01:23:20.738Z,0.00
2019-02-09T01:24:20.725Z,0.00
2019-02-09T01:25:20.724Z,0.00
2019-02-09T01:26:20.710Z,0.00
2019-02-09T01:27:20.696Z,0.00
2019-02-09T01:28:20.687Z,0.00
2019-02-09T01:29:20.671Z,0.00
2019-02-09T01:30:20.657Z,0.00
2019-02-09T01:31:20.649Z,0.00
2019-02-09T01:32:20.649Z,0.00
2019-02-09T01:33:20.626Z,0.00
2019-02-09T01:34:20.613Z,0.00
2019-02-09T01:35:20.610Z,0.00
2019-02-09T01:36:20.592Z,0.00
2019-02-09T01:37:20.578Z,0.00
2019-02-09T01:38:20.574Z,0.00
2019-02-09T01:39:20.561Z,0.00
2019-02-09T01:40:20.545Z,0.00
2019-02-09T01:41:20.533Z,0.00
2019-02-09T01:42:20.521Z,0.00
2019-02-09T01:43:20.507Z,0.00
2019-02-09T01:44:20.496Z,0.00
2019-02-09T01:45:20.496Z,0.00
2019-02-09T01:46:20.477Z,0.00
2019-02-09T01:47:20.464Z,0.00
2019-02-09T01:48:20.453Z,0.00
2019-02-09T01:49:20.443Z,0.00
2019-02-09T01:50:20.428Z,0.00
2019-02-09T01:51:20.418Z,0.00
2019-02-09T01:52:20.427Z,0.00
2019-02-09T01:53:20.401Z,0.00
2019-02-09T01:54:20.384Z,0.00
2019-02-09T01:55:20.378Z,0.00
2019-02-09T01:56:20.363Z,0.00
2019-02-09T01:57:20.351Z,0.00
2019-02-09T01:58:20.345Z,0.00
2019-02-09T01:59:20.331Z,0.00
2019-02-09T02:00:20.323Z,0.00
2019-02-09T02:01:20.305Z,0.00
2019-02-09T02:02:20.294Z,0.00
2019-02-09T02:03:20.286Z,0.00
2019-02-09T02:04:20.274Z,0.00
2019-02-09T02:05:20.257Z,0.00
2019-02-09T02:06:20.255Z,0.00
2019-02-09T02:07:20.243Z,0.00
2019-02-09T02:08:20.226Z,0.00
2019-02-09T02:09:20.213Z,0.00
2019-02-09T02:10:20.208Z,0.00
2019-02-09T02:11:20.187Z,0.00
2019-02-09T02:12:20.184Z,0.00
2019-02-09T02:13:20.171Z,0.00
2019-02-09T02:14:20.156Z,0.00
2019-02-09T02:15:20.147Z,0.00
2019-02-09T02:16:20.145Z,0.00
2019-02-09T02:17:20.127Z,0.00
2019-02-09T02:18:20.114Z,0.00
2019-02-09T02:19:20.099Z,0.00
2019-02-09T02:20:20.107Z,0.00
2019-02-09T02:21:20.081Z,0.00
2019-02-09T02:22:20.072Z,0.00
2019-02-09T02:23:20.064Z,0.00
2019-02-09T02:24:20.048Z,0.00
2019-02-09T02:25:20.038Z,0.00
2019-02-09T02:26:20.023Z,0.00
2019-02-09T02:27:20.024Z,0.00
2019-02-09T02:28:20.014Z,0.00
2019-02-09T02:29:19.994Z,0.00
2019-02-09T02:30:22.682Z,0.00
2019-02-09T02:31:19.976Z,0.00
2019-02-09T02:32:19.956Z,0.00
2019-02-09T02:33:19.954Z,0.00
2019-02-09T02:34:19.935Z,0.00
2019-02-09T02:35:19.918Z,0.00
2019-02-09T02:36:19.917Z,0.00
2019-02-09T02:37:19.903Z,0.00
2019-02-09T02:38:19.886Z,0.00
2019-02-09T02:39:19.880Z,0.00
2019-02-09T02:40:19.869Z,0.00
2019-02-09T02:41:19.851Z,0.00
2019-02-09T02:42:19.836Z,0.00
2019-02-09T02:43:19.835Z,0.00
2019-02-09T02:44:19.820Z,0.00
2019-02-09T02:45:19.812Z,0.00
2019-02-09T02:46:19.799Z,0.00
2019-02-09T02:47:19.781Z,0.00
2019-02-09T02:48:19.778Z,0.00
2019-02-09T02:49:19.768Z,0.00
2019-02-09T02:50:19.762Z,0.00
2019-02-09T02:51:19.745Z,0.00
2019-02-09T02:52:19.733Z,0.00
2019-02-09T02:53:19.721Z,0.00
2019-02-09T02:54:19.711Z,0.00
2019-02-09T02:55:19.697Z,0.00
2019-02-09T02:56:19.685Z,0.00
2019-02-09T02:57:19.672Z,0.00
2019-02-09T02:58:19.663Z,0.00
2019-02-09T02:59:19.650Z,0.00
2019-02-09T03:00:19.640Z,0.00
2019-02-09T03:01:19.640Z,0.00
2019-02-09T03:02:19.620Z,0.00
2019-02-09T03:03:19.607Z,0.00
2019-02-09T03:04:19.595Z,0.00
2019-02-09T03:05:19.604Z,0.00
2019-02-09T03:06:19.575Z,0.00
2019-02-09T03:07:19.565Z,0.00
2019-02-09T03:08:19.547Z,0.00
2019-02-09T03:09:19.539Z,0.00
2019-02-09T03:10:19.529Z,0.00
2019-02-09T03:11:19.522Z,0.00
2019-02-09T03:12:19.505Z,0.00
2019-02-09T03:13:19.498Z,0.00
2019-02-09T03:14:19.482Z,0.00
2019-02-09T03:15:19.472Z,0.00
2019-02-09T03:16:19.459Z,0.00
2019-02-09T03:17:19.447Z,0.00
2019-02-09T03:18:19.436Z,0.00
2019-02-09T03:19:19.429Z,0.00
2019-02-09T03:20:19.415Z,0.00
2019-02-09T03:21:19.408Z,0.00
2019-02-09T03:22:19.387Z,0.00
2019-02-09T03:23:19.384Z,0.00
2019-02-09T03:24:19.372Z,0.00
2019-02-09T03:25:19.375Z,0.00
2019-02-09T03:26:19.351Z,0.00
2019-02-09T03:27:19.337Z,0.00
2019-02-09T03:28:19.328Z,0.00
2019-02-09T03:29:19.314Z,0.00
2019-02-09T03:30:19.312Z,0.00
2019-02-09T03:31:19.302Z,0.00
2019-02-09T03:32:19.282Z,0.00
2019-02-09T03:33:19.310Z,0.00
2019-02-09T03:34:19.258Z,0.00
2019-02-09T03:35:19.258Z,0.00
2019-02-09T03:36:19.231Z,0.00
2019-02-09T03:37:19.219Z,0.00
2019-02-09T03:38:19.215Z,0.00
2019-02-09T03:39:19.207Z,0.00
2019-02-09T03:40:19.191Z,0.00
2019-02-09T03:41:19.192Z,0.00
2019-02-09T03:42:19.166Z,0.00
2019-02-09T03:43:19.151Z,0.00
2019-02-09T03:44:19.143Z,0.00
2019-02-09T03:45:19.134Z,0.00
2019-02-09T03:46:19.123Z,0.00
2019-02-09T03:47:19.113Z,5.51
2019-02-09T03:48:19.099Z,2.66
2019-02-09T03:49:19.090Z,4.46
2019-02-09T03:50:19.080Z,1.99
2019-02-09T03:51:19.103Z,4.65
2019-02-09T03:52:19.980Z,1.52
2019-02-09T03:53:19.047Z,0.95
2019-02-09T03:54:19.035Z,0.00
2019-02-09T03:55:19.020Z,0.00
2019-02-09T03:56:19.057Z,0.00
2019-02-09T03:57:18.998Z,0.00
2019-02-09T03:58:19.021Z,0.00
2019-02-09T03:59:18.979Z,0.00
2019-02-09T04:00:18.964Z,6.08
2019-02-09T04:01:18.957Z,2.09
2019-02-09T04:02:18.965Z,2.37
2019-02-09T04:03:18.931Z,0.57
2019-02-09T04:04:18.929Z,0.00
2019-02-09T04:05:18.909Z,3.32
2019-02-09T04:06:18.895Z,0.00
2019-02-09T04:07:18.889Z,0.00
2019-02-09T04:08:18.883Z,0.00
2019-02-09T04:09:18.868Z,0.00
2019-02-09T04:10:18.858Z,0.00
2019-02-09T04:11:18.845Z,0.00
2019-02-09T04:12:18.833Z,0.00
2019-02-09T04:13:18.834Z,0.00
2019-02-09T04:14:18.806Z,0.00
2019-02-09T04:15:18.801Z,0.00
2019-02-09T04:16:18.790Z,0.00
2019-02-09T04:17:18.780Z,0.00
2019-02-09T04:18:18.767Z,0.00
2019-02-09T04:19:18.754Z,2.66
2019-02-09T04:20:18.739Z,0.00
2019-02-09T04:21:18.731Z,0.00
2019-02-09T04:22:18.730Z,0.00
2019-02-09T04:23:18.709Z,0.38
2019-02-09T04:24:18.697Z,0.00
2019-02-09T04:25:18.686Z,0.09
2019-02-09T04:26:18.678Z,0.00
2019-02-09T04:27:18.666Z,0.00
2019-02-09T04:28:18.654Z,0.00
2019-02-09T04:29:18.645Z,0.00
2019-02-09T04:30:18.651Z,0.28
2019-02-09T04:31:18.627Z,3.04
2019-02-09T04:32:18.613Z,1.32
2019-02-09T04:33:18.594Z,6.08
2019-02-09T04:34:33.493Z,2.75
2019-02-09T04:35:18.571Z,5.79
2019-02-09T04:36:18.567Z,1.80
2019-02-09T04:37:18.556Z,1.52
2019-02-09T04:38:18.547Z,0.66
2019-02-09T04:39:18.529Z,8.55
2019-02-09T04:40:18.635Z,8.26
2019-02-09T04:41:18.504Z,11.97
2019-02-09T04:42:18.496Z,5.89
2019-02-09T04:43:18.480Z,3.04
2019-02-09T04:44:18.493Z,4.94
2019-02-09T04:45:20.149Z,1.99
2019-02-09T04:46:18.450Z,5.60
2019-02-09T04:47:18.446Z,7.98
2019-02-09T04:48:18.454Z,4.27
2019-02-09T04:49:18.421Z,11.50
2019-02-09T04:50:18.410Z,9.97
2019-02-09T04:51:18.402Z,14.35
2019-02-09T04:52:18.390Z,14.82
2019-02-09T04:53:18.381Z,12.07
2019-02-09T04:54:18.362Z,10.74
2019-02-09T04:55:18.356Z,9.50
2019-02-09T04:56:18.335Z,7.98
2019-02-09T04:57:18.328Z,4.46
2019-02-09T04:58:18.320Z,14.35
2019-02-09T04:59:18.339Z,8.55
2019-02-09T05:00:18.292Z,9.50
2019-02-09T05:01:18.285Z,5.98
2019-02-09T05:02:18.276Z,8.26
2019-02-09T05:03:18.267Z,6.65
2019-02-09T05:04:18.251Z,5.60
2019-02-09T05:05:20.361Z,10.74
2019-02-09T05:06:18.237Z,8.64
2019-02-09T05:07:18.219Z,6.74
2019-02-09T05:08:18.204Z,4.37
2019-02-09T05:09:18.193Z,11.11
2019-02-09T05:10:18.188Z,11.78
2019-02-09T05:11:18.182Z,6.08
2019-02-09T05:12:18.163Z,10.93
2019-02-09T05:13:18.153Z,14.35
2019-02-09T05:14:18.147Z,12.35
2019-02-09T05:15:18.128Z,16.72
2019-02-09T05:16:18.154Z,13.02
2019-02-09T05:17:18.117Z,16.63
2019-02-09T05:18:18.118Z,15.96
2019-02-09T05:19:18.088Z,10.93
2019-02-09T05:20:18.086Z,13.78
2019-02-09T05:21:18.069Z,10.55
2019-02-09T05:22:18.055Z,8.36
2019-02-09T05:23:18.043Z,9.41
2019-02-09T05:24:18.033Z,6.74
2019-02-09T05:25:18.078Z,10.45
2019-02-09T05:26:18.017Z,6.27
2019-02-09T05:27:17.994Z,10.74
2019-02-09T05:28:17.983Z,8.26
2019-02-09T05:29:17.972Z,20.81
2019-02-09T05:30:17.968Z,13.02
2019-02-09T05:31:23.204Z,13.11
2019-02-09T05:32:17.940Z,12.26
2019-02-09T05:33:17.933Z,11.21
2019-02-09T05:34:17.920Z,13.68
2019-02-09T05:35:17.916Z,16.25
2019-02-09T05:36:17.895Z,13.02
2019-02-09T05:37:17.887Z,23.09
2019-02-09T05:38:17.877Z,22.14
2019-02-09T05:39:17.863Z,21.57
2019-02-09T05:40:17.852Z,22.24
2019-02-09T05:41:17.844Z,32.21
2019-02-09T05:42:17.831Z,24.99
2019-02-09T05:43:17.833Z,24.13
2019-02-09T05:44:17.815Z,27.08
2019-02-09T05:45:17.798Z,21.47
2019-02-09T05:46:17.788Z,21.86
2019-02-09T05:47:17.778Z,32.97
2019-02-09T05:48:17.768Z,25.46
2019-02-09T05:49:17.752Z,22.42
2019-02-09T05:50:17.747Z,16.72
2019-02-09T05:51:17.732Z,14.25
2019-02-09T05:52:17.714Z,27.84
2019-02-09T05:53:17.712Z,20.43
2019-02-09T05:54:17.700Z,18.62
2019-02-09T05:55:17.691Z,13.30
2019-02-09T05:56:17.675Z,9.97
2019-02-09T05:57:17.667Z,10.64
2019-02-09T05:58:17.654Z,15.01
2019-02-09T05:59:17.640Z,11.88
2019-02-09T06:00:17.636Z,11.02
2019-02-09T06:01:17.622Z,10.83
2019-02-09T06:02:17.607Z,14.25
2019-02-09T06:03:17.599Z,31.17
2019-02-09T06:04:17.589Z,19.48
2019-02-09T06:05:17.578Z,26.13
2019-02-09T06:06:17.561Z,19.29
2019-02-09T06:07:17.555Z,20.53
2019-02-09T06:08:17.544Z,19.38
2019-02-09T06:09:17.532Z,21.86
2019-02-09T06:10:17.544Z,27.56
2019-02-09T06:11:19.148Z,39.53
2019-02-09T06:12:17.497Z,32.59
2019-02-09T06:13:17.483Z,29.84
2019-02-09T06:14:17.475Z,30.79
2019-02-09T06:15:17.542Z,26.98
2019-02-09T06:16:17.449Z,38.01
2019-02-09T06:17:17.443Z,26.79
2019-02-09T06:18:17.432Z,25.09
2019-02-09T06:19:17.423Z,38.10
2019-02-09T06:20:17.407Z,24.61
2019-02-09T06:21:17.394Z,34.02
2019-02-09T06:22:17.388Z,44.85
2019-02-09T06:23:17.376Z,38.10
2019-02-09T06:24:17.369Z,42.76
2019-02-09T06:25:17.356Z,23.28
2019-02-09T06:26:17.344Z,31.93
2019-02-09T06:27:17.333Z,31.55
2019-02-09T06:28:17.324Z,28.51
2019-02-09T06:29:17.314Z,24.04
2019-02-09T06:30:17.298Z,22.80
2019-02-09T06:31:17.287Z,31.55
2019-02-09T06:32:17.277Z,28.22
2019-02-09T06:33:17.268Z,30.69
2019-02-09T06:34:17.369Z,26.32
2019-02-09T06:35:17.251Z,40.48
2019-02-09T06:36:17.238Z,27.18
2019-02-09T06:37:17.217Z,28.13
2019-02-09T06:38:17.211Z,25.75
2019-02-09T06:39:17.200Z,32.12
2019-02-09T06:40:17.188Z,38.20
2019-02-09T06:41:17.179Z,31.36
2019-02-09T06:42:17.162Z,26.70
2019-02-09T06:43:17.155Z,48.46
2019-02-09T06:44:17.143Z,35.35
2019-02-09T06:45:17.137Z,35.25
2019-02-09T06:46:17.126Z,33.92
2019-02-09T06:47:17.109Z,45.71
2019-02-09T06:48:17.097Z,39.81
2019-02-09T06:49:17.090Z,44.76
2019-02-09T06:50:17.077Z,49.13
2019-02-09T06:51:17.068Z,61.96
2019-02-09T06:52:17.052Z,78.44
2019-02-09T06:53:17.050Z,59.90
2019-02-09T06:54:17.049Z,64.37
2019-02-09T06:55:17.019Z,53.05
2019-02-09T06:56:17.011Z,52.84
2019-02-09T06:57:17.007Z,64.53
2019-02-09T06:58:16.986Z,76.69
2019-02-09T06:59:16.982Z,47.16
2019-02-09T07:00:16.966Z,55.59
2019-02-09T07:01:16.965Z,50.84
2019-02-09T07:02:16.944Z,48.66
2019-02-09T07:03:16.935Z,43.14
2019-02-09T07:04:16.922Z,43.24
2019-02-09T07:05:16.940Z,55.30
2019-02-09T07:06:16.903Z,54.17
2019-02-09T07:07:16.890Z,43.14
2019-02-09T07:08:16.904Z,43.52
2019-02-09T07:09:16.870Z,46.09
2019-02-09T07:10:16.853Z,55.11
2019-02-09T07:11:16.849Z,48.94
2019-02-09T07:12:16.833Z,70.32
2019-02-09T07:13:16.818Z,52.36
2019-02-09T07:14:16.813Z,47.99
2019-02-09T07:15:16.803Z,56.63
2019-02-09T07:16:16.792Z,54.55
2019-02-09T07:17:16.780Z,56.45
2019-02-09T07:18:16.767Z,50.56
2019-02-09T07:19:16.757Z,46.19
2019-02-09T07:20:16.745Z,61.10
2019-02-09T07:21:16.735Z,49.79
2019-02-09T07:22:16.736Z,49.70
2019-02-09T07:23:16.710Z,63.01
2019-02-09T07:24:16.701Z,77.55
2019-02-09T07:25:16.707Z,68.42
2019-02-09T07:26:16.674Z,60.44
2019-02-09T07:27:16.670Z,64.53
2019-02-09T07:28:16.663Z,63.20
2019-02-09T07:29:16.648Z,65.19
2019-02-09T07:30:16.636Z,67.57
2019-02-09T07:31:17.551Z,74.60
2019-02-09T07:32:16.614Z,55.21
2019-02-09T07:33:16.596Z,54.83
2019-02-09T07:34:16.598Z,52.55
2019-02-09T07:35:16.579Z,59.77
2019-02-09T07:36:16.615Z,78.21
2019-02-09T07:37:16.564Z,55.02
2019-02-09T07:38:16.544Z,53.50
2019-02-09T07:39:16.532Z,69.37
2019-02-09T07:40:16.527Z,71.18
2019-02-09T07:41:16.514Z,80.58
2019-02-09T07:42:16.499Z,76.92
2019-02-09T07:43:16.502Z,69.88
2019-02-09T07:44:16.481Z,69.02
2019-02-09T07:45:16.475Z,60.72
2019-02-09T07:46:16.455Z,52.08
2019-02-09T07:47:16.450Z,61.01
2019-02-09T07:48:16.436Z,68.99
2019-02-09T07:49:16.425Z,79.83
2019-02-09T07:50:16.408Z,65.09
2019-02-09T07:51:16.405Z,66.94
2019-02-09T07:52:16.394Z,64.84
2019-02-09T07:53:16.380Z,57.62
2019-02-09T07:54:16.367Z,67.19
2019-02-09T07:55:16.360Z,72.41
2019-02-09T07:56:16.349Z,56.83
2019-02-09T07:57:16.347Z,59.20
2019-02-09T07:58:16.325Z,62.05
2019-02-09T07:59:16.324Z,63.39
2019-02-09T08:00:16.311Z,62.34
2019-02-09T08:01:16.299Z,64.62
2019-02-09T08:02:16.286Z,78.30
2019-02-09T08:03:16.270Z,66.61
2019-02-09T08:04:16.263Z,65.86
2019-02-09T08:05:16.255Z,71.46
2019-02-09T08:06:16.235Z,70.79
2019-02-09T08:07:16.228Z,69.09
2019-02-09T08:08:16.227Z,68.42
2019-02-09T08:09:16.204Z,60.35
2019-02-09T08:10:16.196Z,57.97
2019-02-09T08:11:16.189Z,74.22
2019-02-09T08:12:16.175Z,99.99
2019-02-09T08:13:16.159Z,71.41
2019-02-09T08:14:16.152Z,81.16
2019-02-09T08:15:16.140Z,63.76
2019-02-09T08:16:16.131Z,74.44
2019-02-09T08:17:16.122Z,96.89
2019-02-09T08:18:16.105Z,76.44
2019-02-09T08:19:16.095Z,88.33
2019-02-09T08:20:16.094Z,70.07
2019-02-09T08:21:16.075Z,80.24
2019-02-09T08:22:16.070Z,73.21
2019-02-09T08:23:16.053Z,68.61
2019-02-09T08:24:16.038Z,60.18
2019-02-09T08:25:16.027Z,70.83
2019-02-09T08:26:16.031Z,68.93
2019-02-09T08:27:23.283Z,69.50
2019-02-09T08:28:16.005Z,97.17
2019-02-09T08:29:15.995Z,85.00
2019-02-09T08:30:15.983Z,92.70
2019-02-09T08:31:15.970Z,75.87
2019-02-09T08:32:15.959Z,90.14
2019-02-09T08:33:15.946Z,99.99
2019-02-09T08:34:15.940Z,82.43
2019-02-09T08:35:15.931Z,82.05
2019-02-09T08:36:15.917Z,69.98
2019-02-09T08:37:15.907Z,75.87
2019-02-09T08:38:15.890Z,70.36
2019-02-09T08:39:15.888Z,66.94
2019-02-09T08:40:15.875Z,57.14
2019-02-09T08:41:15.872Z,75.49
2019-02-09T08:42:15.856Z,85.76
2019-02-09T08:43:15.843Z,83.48
2019-02-09T08:44:15.833Z,72.55
2019-02-09T08:45:15.831Z,70.64
2019-02-09T08:46:15.809Z,86.99
2019-02-09T08:47:15.798Z,84.14
2019-02-09T08:48:15.790Z,93.46
2019-02-09T08:49:15.779Z,99.99
2019-02-09T08:50:15.768Z,70.74
2019-02-09T08:51:15.756Z,92.99
2019-02-09T08:52:15.748Z,93.27
2019-02-09T08:53:15.737Z,77.49
2019-02-09T08:54:15.728Z,79.77
2019-02-09T08:55:15.717Z,82.43
2019-02-09T08:56:15.703Z,97.08
2019-02-09T08:57:15.706Z,99.99
2019-02-09T08:58:15.682Z,87.04
2019-02-09T08:59:15.678Z,87.52
2019-02-09T09:00:15.666Z,82.09
2019-02-09T09:01:15.655Z,96.17
2019-02-09T09:02:20.408Z,99.22
2019-02-09T09:03:15.637Z,75.15
2019-02-09T09:04:15.635Z,82.28
2019-02-09T09:05:15.619Z,92.27
2019-02-09T09:06:15.609Z,89.80
2019-02-09T09:07:15.594Z,98.08
2019-02-09T09:08:15.579Z,99.99
2019-02-09T09:09:15.575Z,89.61
2019-02-09T09:10:15.569Z,99.99
2019-02-09T09:11:15.558Z,99.99
2019-02-09T09:12:15.547Z,93.60
2019-02-09T09:13:15.542Z,88.94
2019-02-09T09:14:15.534Z,94.93
2019-02-09T09:15:15.515Z,95.60
2019-02-09T09:16:15.503Z,99.99
2019-02-09T09:17:15.496Z,94.42
2019-02-09T09:18:15.488Z,99.99
2019-02-09T09:19:15.525Z,99.99
2019-02-09T09:20:15.471Z,99.99
2019-02-09T09:21:15.456Z,92.56
2019-02-09T09:22:15.453Z,96.55
2019-02-09T09:23:15.454Z,99.99
2019-02-09T09:24:15.432Z,97.74
2019-02-09T09:25:15.434Z,99.99
2019-02-09T09:26:15.413Z,99.99
2019-02-09T09:27:15.410Z,99.99
2019-02-09T09:28:15.403Z,97.50
2019-02-09T09:29:15.392Z,99.99
2019-02-09T09:30:15.379Z,99.99
2019-02-09T09:31:15.371Z,99.99
2019-02-09T09:32:15.355Z,99.99
2019-02-09T09:33:15.356Z,99.99
2019-02-09T09:34:15.344Z,94.46
2019-02-09T09:35:15.335Z,99.99
2019-02-09T09:36:15.336Z,99.99
2019-02-09T09:37:15.311Z,99.99
2019-02-09T09:38:15.312Z,99.99
2019-02-09T09:39:15.299Z,94.74
2019-02-09T09:40:15.287Z,93.32
2019-02-09T09:41:15.278Z,99.99
2019-02-09T09:42:15.268Z,99.99
2019-02-09T09:43:15.308Z,99.99
2019-02-09T09:44:15.259Z,99.99
2019-02-09T09:45:15.271Z,99.99
2019-02-09T09:46:15.233Z,99.99
2019-02-09T09:47:15.218Z,99.99
2019-02-09T09:48:15.209Z,99.99
2019-02-09T09:49:15.204Z,87.99
2019-02-09T09:50:16.092Z,92.94
2019-02-09T09:51:15.183Z,91.89
2019-02-09T09:52:15.174Z,99.99
2019-02-09T09:53:15.160Z,99.99
2019-02-09T09:54:15.155Z,99.99
2019-02-09T09:55:15.152Z,99.99
2019-02-09T09:56:15.154Z,93.32
2019-02-09T09:57:15.128Z,99.99
2019-02-09T09:58:15.163Z,99.99
2019-02-09T09:59:15.103Z,99.99
2019-02-09T10:00:15.091Z,99.99
2019-02-09T10:01:15.084Z,93.89
2019-02-09T10:02:15.078Z,98.08
2019-02-09T10:03:15.066Z,99.88
2019-02-09T10:04:15.065Z,99.99
2019-02-09T10:05:15.052Z,99.99
2019-02-09T10:06:15.039Z,99.99
2019-02-09T10:07:15.040Z,99.99
2019-02-09T10:08:15.015Z,99.99
2019-02-09T10:09:15.009Z,94.79
2019-02-09T10:10:14.996Z,99.99
2019-02-09T10:11:14.988Z,99.99
2019-02-09T10:12:14.980Z,99.99
2019-02-09T10:13:14.975Z,99.99
2019-02-09T10:14:14.964Z,99.99
2019-02-09T10:15:14.946Z,99.99
2019-02-09T10:16:14.938Z,99.99
2019-02-09T10:17:14.943Z,99.99
2019-02-09T10:18:14.922Z,99.99
2019-02-09T10:19:14.938Z,99.99
2019-02-09T10:20:14.908Z,99.99
2019-02-09T10:21:14.890Z,99.99
2019-02-09T10:22:15.616Z,99.99
2019-02-09T10:23:14.892Z,99.99
2019-02-09T10:24:14.872Z,99.99
2019-02-09T10:25:14.863Z,99.99
2019-02-09T10:26:14.856Z,99.99
2019-02-09T10:27:14.847Z,99.99
2019-02-09T10:28:14.834Z,99.99
2019-02-09T10:29:14.828Z,99.99
2019-02-09T10:30:14.826Z,99.99
2019-02-09T10:31:15.612Z,99.99
2019-02-09T10:32:14.805Z,99.99
2019-02-09T10:33:14.803Z,99.99
2019-02-09T10:34:14.812Z,99.99
2019-02-09T10:35:14.783Z,99.99
2019-02-09T10:36:14.786Z,99.99
2019-02-09T10:37:14.772Z,99.99
2019-02-09T10:38:14.757Z,99.99
2019-02-09T10:39:14.757Z,99.99
2019-02-09T10:40:14.746Z,99.99
2019-02-09T10:41:14.744Z,99.99
2019-02-09T10:42:14.729Z,99.99
2019-02-09T10:43:14.729Z,99.99
2019-02-09T10:44:14.719Z,99.99
2019-02-09T10:45:14.708Z,99.99
2019-02-09T10:46:14.705Z,99.99
2019-02-09T10:47:14.694Z,99.99
2019-02-09T10:48:14.691Z,99.99
2019-02-09T10:49:14.680Z,99.99
2019-02-09T10:50:14.684Z,99.99
2019-02-09T10:51:14.666Z,99.99
2019-02-09T10:52:14.668Z,99.99
2019-02-09T10:53:14.646Z,99.99
2019-02-09T10:54:14.643Z,99.99
2019-02-09T10:55:14.635Z,99.99
2019-02-09T10:56:14.623Z,99.99
2019-02-09T10:57:14.620Z,99.99
2019-02-09T10:58:14.611Z,99.99
2019-02-09T10:59:14.598Z,99.99
2019-02-09T11:00:14.588Z,99.99
2019-02-09T11:01:14.580Z,99.99
2019-02-09T11:02:14.593Z,99.99
2019-02-09T11:03:14.557Z,99.99
2019-02-09T11:04:14.557Z,99.99
2019-02-09T11:05:14.597Z,99.99
2019-02-09T11:06:14.537Z,99.99
2019-02-09T11:07:14.536Z,99.99
2019-02-09T11:08:14.523Z,99.99
2019-02-09T11:09:14.510Z,99.99
2019-02-09T11:10:14.505Z,99.99
2019-02-09T11:11:14.494Z,99.99
2019-02-09T11:12:14.481Z,99.99
2019-02-09T11:13:14.476Z,99.99
2019-02-09T11:14:14.467Z,99.99
2019-02-09T11:15:14.534Z,99.99
2019-02-09T11:16:14.451Z,99.99
2019-02-09T11:17:14.447Z,99.99
2019-02-09T11:18:14.438Z,99.99
2019-02-09T11:19:14.429Z,99.99
2019-02-09T11:20:14.418Z,99.99
2019-02-09T11:21:14.421Z,99.99
2019-02-09T11:22:14.412Z,99.99
2019-02-09T11:23:14.392Z,99.99
2019-02-09T11:24:14.386Z,99.99
2019-02-09T11:25:14.386Z,99.99
2019-02-09T11:26:14.368Z,99.99
2019-02-09T11:27:14.350Z,99.99
2019-02-09T11:28:14.341Z,99.99
2019-02-09T11:29:14.338Z,99.99
2019-02-09T11:30:14.328Z,99.99
2019-02-09T11:31:14.320Z,99.99
2019-02-09T11:32:14.838Z,99.99
2019-02-09T11:33:14.299Z,99.99
2019-02-09T11:34:14.291Z,99.99
2019-02-09T11:35:14.282Z,99.99
2019-02-09T11:36:14.275Z,99.99
2019-02-09T11:37:14.264Z,99.99
2019-02-09T11:38:14.259Z,99.99
2019-02-09T11:39:14.251Z,99.99
2019-02-09T11:40:14.238Z,99.99
2019-02-09T11:41:14.229Z,99.99
2019-02-09T11:42:14.222Z,99.99
2019-02-09T11:43:14.211Z,99.99
2019-02-09T11:44:14.201Z,99.99
2019-02-09T11:45:14.200Z,99.99
2019-02-09T11:46:14.185Z,99.99
2019-02-09T11:47:14.168Z,99.99
2019-02-09T11:48:14.171Z,99.99
2019-02-09T11:49:14.152Z,99.99
2019-02-09T11:50:14.141Z,99.99
2019-02-09T11:51:14.153Z,99.99
2019-02-09T11:52:14.124Z,99.99
2019-02-09T11:53:14.121Z,99.99
2019-02-09T11:54:14.106Z,99.99
2019-02-09T11:55:15.849Z,99.99
2019-02-09T11:56:14.101Z,99.99
2019-02-09T11:57:14.133Z,99.99
2019-02-09T11:58:14.076Z,99.99
2019-02-09T11:59:14.069Z,99.99
2019-02-09T12:00:14.058Z,99.99
2019-02-09T12:01:14.047Z,99.99
2019-02-09T12:02:14.033Z,99.99
2019-02-09T12:03:16.112Z,99.99
2019-02-09T12:04:14.023Z,99.99
2019-02-09T12:05:14.003Z,99.99
2019-02-09T12:06:13.993Z,99.99
2019-02-09T12:07:13.982Z,99.99
2019-02-09T12:08:13.974Z,99.99
2019-02-09T12:09:13.973Z,99.99
2019-02-09T12:10:13.952Z,99.99
2019-02-09T12:11:13.953Z,99.99
2019-02-09T12:12:13.932Z,99.99
2019-02-09T12:13:13.930Z,99.99
2019-02-09T12:14:13.934Z,99.99
2019-02-09T12:15:13.901Z,99.99
2019-02-09T12:16:13.899Z,99.99
2019-02-09T12:17:13.885Z,99.99
2019-02-09T12:18:13.875Z,99.99
2019-02-09T12:19:13.869Z,99.99
2019-02-09T12:20:13.853Z,99.99
2019-02-09T12:21:13.853Z,99.99
2019-02-09T12:22:13.838Z,99.99
2019-02-09T12:23:13.826Z,99.99
2019-02-09T12:24:13.821Z,99.99
2019-02-09T12:25:13.807Z,99.99
2019-02-09T12:26:13.793Z,99.99
2019-02-09T12:27:13.791Z,99.99
2019-02-09T12:28:13.777Z,99.99
2019-02-09T12:29:13.763Z,99.99
2019-02-09T12:30:13.759Z,99.99
2019-02-09T12:31:13.747Z,99.99
2019-02-09T12:32:13.736Z,99.99
2019-02-09T12:33:13.728Z,99.99
2019-02-09T12:34:13.717Z,99.99
2019-02-09T12:35:13.723Z,99.99
2019-02-09T12:36:13.700Z,99.99
2019-02-09T12:37:13.695Z,99.99
2019-02-09T12:38:13.687Z,99.99
2019-02-09T12:39:13.676Z,99.99
2019-02-09T12:40:13.672Z,99.99
2019-02-09T12:41:13.661Z,99.99
2019-02-09T12:42:13.642Z,99.99
2019-02-09T12:43:13.643Z,99.99
2019-02-09T12:44:13.649Z,99.99
2019-02-09T12:45:13.614Z,99.99
2019-02-09T12:46:13.611Z,99.99
2019-02-09T12:47:13.602Z,99.99
2019-02-09T12:48:13.597Z,99.99
2019-02-09T12:49:13.630Z,99.99
2019-02-09T12:50:13.571Z,99.99
2019-02-09T12:51:13.563Z,99.99
2019-02-09T12:52:13.554Z,99.99
2019-02-09T12:53:13.546Z,99.99
2019-02-09T12:54:13.538Z,99.99
2019-02-09T12:55:13.525Z,99.99
2019-02-09T12:56:13.516Z,99.99
2019-02-09T12:57:13.555Z,99.99
2019-02-09T12:58:13.508Z,99.99
2019-02-09T12:59:15.014Z,99.99
2019-02-09T13:00:13.491Z,99.99
2019-02-09T13:01:13.483Z,99.99
2019-02-09T13:02:13.455Z,99.99